Terminal Aerodrome Forecast
Issued by NWS Charleston, WV

Home | Current Version | Previous Version | Text Only | Print | Product List | Glossary On
Versions: 1 2 3 4 5 6 7 8 9 10 11 12 13 14 15 16 17 18 19 20 21 22 23
969
FTUS41 KRLX 040907 AAA
TAFCRW
TAF AMD
KCRW 040907Z 0409/0506 VRB03KT 6SM BR SCT007 BKN015 OVC025
      TEMPO 0409/0412 BKN007 BKN015 OVC025
     FM042200 24006KT P6SM -SHRA VCTS BKN040CB
     FM050200 25004KT 4SM SHRA BR VCTS OVC025CB=

USA.gov is the U.S. government's official web portal to all federal, state and local government web resources and services.